Hanging Rock, Virginia
Current Conditions -  °F | °C
As of 2:54 PM on Friday 21 Nov 2014 (Local Time) from KROA Reporting Station
Clear Clear  
Wind Chill: 36°   Ceiling: Unl
Heat Index: 42°   Visibility: 10mi
Dew Point:   Wind: 12mph
Humidity: 20%   Direction: 300°WNW
Pressure: 30.43"   Gusts: NA
Location:  37.2956°N, 80.1166°W
Report Text: KROA 211954Z 30010KT 10SM CLR 06/M16 A3043 RMK AO2 SLP312 T00561161
Loading
Personal Weather Stations






























Interactive Weather Map New forecast layout! Learn more

10-Day Weather Forecast

Advertisements
Track Severe Weather on mobile